YXR weather

Earlton (Timiskaming Regional) Airport
Earlton, Ontario, Canada

Public forecast

Using degrees Celsius for public forecast. Weather courtesy of forecast.io.

Current aviation weather report (METAR) for Earlton (Timiskaming Regional) Airport

Retrieved 2020/07/03 23:00 UTC (14 minutes ago):

CYXR 032300Z AUTO 32007KT 9SM CLR 25/12 A3002 RMK SLP167 DENSITY ALT 1900FT

Aviation forecast (TAF) for Earlton (Timiskaming Regional) Airport

Retrieved 2020/07/03 18:00 UTC (5 hours ago):

TAF CYXR 031744Z 0318/0324 33012KT P6SM FEW060 SCT100 RMK FCST BASED ON AUTO OBS NXT FCST WILL BE ISSUED AT 041145Z